ムルマンスク の空港の天気 - METARとTAF

ムルマンスク空港 ( ULMM / MMK ) - ロシア ムルマンスク
飛行場実況気象(Metar)
観測時間11/27 11:30 MSK (11/27 08:30 UTC)
風向・風速南南西 3m/s
視程10km以上
天気現象
全天の4割程度の雲 雲底高度 640m
気温-5℃
湿度93%
気圧1029hPa
METARULMM 270830Z 21003MPS 9999 SCT021 M05/M06 Q1029 R13/350050 NOSIG RMK QFE765
過去の天気等 Google飛行場航空写真 Wunderground天気予報

過去48時間のMETAR

飛行場予報(TAF)
発表時間: 11/27 10:52 MSK (11/27 07:52 UTC)
予報対象時間: 27日12時 MSK ~ 28日12時 MSK
風向・風速南南西 3m/s 瞬間風速 8m/s
視程10km以上
全天の4割程度の雲 雲底高度 490m
TAF ULMM 270752Z 2709/2809 21003G08MPS 9999 SCT016